MET'MAP v2.0
soon released !

Expected late october,
this new version will be
more efficient, smarter,
and hosted on a brand new
server x3 powerfull...
...and still free !


Not compatible ?
Try the mobile version !

LOG IN : | Subscribe | Disclaimer | Who is Orbifly ? |
ICAO code :

TAF - EGLC London City - 27 Nov 2020 18:06 UTC
Data Sources :     NOAA   


- Airport Elevation : 19 ft
- IATA code : LCY
- No reported NOTAMs.


EGLC - London City

Latest METAR recorded : 2015/08/11 07:50 EGLC 110750Z VRB03KT 9999 FEW012 17/10 Q1019 RERA
TAF TAF EGLC
Valid from the 27 at 15:00 until the 27 at 22:00 UTC


271359Z 2715/2722 06003KT 9999 SCT014
PROB40
TEMPO 2715/2722 BKN012
PROB30
TEMPO 2721/2722 4000 RADZ

Source NOAA
ATIS : +44 20 7646 0224


MET'MAP, your aeronautical weather chart ! - Copyright ORBIFLY December 2007

Programming & Development : Alexandra Zaïnal
Co-Developer : Marc-Olivier Méhu
Technical & hardware support : Manuel Goepfert
Concept & Financing : Baudouin d'Aumeries